MSC Lea — 9HA2639 — position and weather

sailwx.info

Track history (hours):
 
Tides and Currents Weather Stations Pressure Air Temp Water Temp Dewpoint Dewpoint Depression Visibility Wind Speed Wind Dir Waves Ship Positions

MSC Lea

Last reported at 2017-Jul-24 22:30 UTC. Time now 2017-Jul-24 22:45 UTC.
Position N 32°10' E 033°44'.

Length 216 m; draft 8.3 m.

Type: Ship (hazmat cat D). MMSI: 215101000.

Date/timePositionNaut miles runAvg speedWind from/ knotsBaromVisibWave heightAir tempDewpointWater temp
2017-Jul-24 22:30N 32°10' E 033°44'714.0
2017-Jul-24 22:00N 32°08' E 033°51'713.9
2017-Jul-24 21:30N 32°05' E 033°59'713.7
2017-Jul-24 21:01N 32°02' E 034°06'22 1.1
2017-Jul-23 23:53N 32°05' E 034°32'410.5
2017-Jul-23 23:30N 32°09' E 034°33'510.6
2017-Jul-23 23:00N 32°14' E 034°35'610.8
2017-Jul-23 22:30N 32°19' E 034°37'510.8
2017-Jul-23 22:00N 32°24' E 034°39'510.6
2017-Jul-23 21:30N 32°29' E 034°41'510.5
2017-Jul-23 21:00N 32°34' E 034°42'510.3
2017-Jul-23 20:30N 32°39' E 034°44'510.1
2017-Jul-23 20:00N 32°44' E 034°46'510.1
2017-Jul-23 19:30N 32°49' E 034°47'510.2
2017-Jul-23 18:59N 32°54' E 034°49'5 9.7
2017-Jul-23 18:30N 32°55' E 034°54'510.8
2017-Jul-23 18:00N 32°52' E 034°59'3 5.4
2017-Jul-23 17:28N 32°49' E 035°01'0 0.0
2017-Jul-23 16:58N 32°49' E 035°01'0 0.0
2017-Jul-23 16:28N 32°49' E 035°01'0 0.0
2017-Jul-23 15:58N 32°49' E 035°01'0 0.0
2017-Jul-23 15:28N 32°49' E 035°01'0 0.0
2017-Jul-23 14:58N 32°49' E 035°01'0 0.0
2017-Jul-23 14:28N 32°49' E 035°01'0 0.0
2017-Jul-23 13:58N 32°49' E 035°01'0 0.0
2017-Jul-23 13:28N 32°49' E 035°01'0 0.0
2017-Jul-23 12:55N 32°49' E 035°01'0 0.0
2017-Jul-23 12:28N 32°49' E 035°01'0 0.0
2017-Jul-23 11:58N 32°49' E 035°01'0 0.0
2017-Jul-23 11:28N 32°49' E 035°01'0 0.0
2017-Jul-23 10:58N 32°49' E 035°01'0 0.0
2017-Jul-23 10:28N 32°49' E 035°01'0 0.0
2017-Jul-23 09:58N 32°49' E 035°01'0 0.0
2017-Jul-23 09:28N 32°49' E 035°01'0 0.0
2017-Jul-23 08:58N 32°49' E 035°01'0 0.0
2017-Jul-23 08:28N 32°49' E 035°01'0 0.0
2017-Jul-23 07:58N 32°49' E 035°01'0 0.0
2017-Jul-23 07:28N 32°49' E 035°01'0 0.0
2017-Jul-23 06:16N 32°49' E 035°01'0 0.0
2017-Jul-23 05:58N 32°49' E 035°01'0 0.0
2017-Jul-23 05:28N 32°49' E 035°01'0 0.0
2017-Jul-23 04:58N 32°49' E 035°01'0 0.1
2017-Jul-23 04:28N 32°49' E 035°01'0 0.0
2017-Jul-23 03:58N 32°49' E 035°01'0 0.0
2017-Jul-23 03:28N 32°49' E 035°01'0 0.0
2017-Jul-23 02:58N 32°49' E 035°01'0 0.0
2017-Jul-23 02:28N 32°49' E 035°01'0 0.0
2017-Jul-23 01:58N 32°49' E 035°01'1 1.6
2017-Jul-23 01:30N 32°50' E 035°01'2 4.7
2017-Jul-23 01:00N 32°51' E 034°59'612.6
2017-Jul-23 00:30N 32°54' E 034°53'1014.4
2017-Jul-22 23:49N 32°56' E 034°41'5 9.3
2017-Jul-22 23:16N 32°57' E 034°35'3 9.8
2017-Jul-22 22:59N 32°58' E 034°32'510.2
2017-Jul-22 22:30N 32°58' E 034°26'510.0
2017-Jul-22 22:00N 32°59' E 034°20'510.2
2017-Jul-22 21:30N 33°00' E 034°14'510.2
2017-Jul-22 21:00N 33°01' E 034°08'510.5
2017-Jul-22 20:30N 33°02' E 034°02'510.6
2017-Jul-22 20:00N 33°03' E 033°56'510.6
2017-Jul-22 19:30N 33°04' E 033°50'510.6
2017-Jul-22 19:00N 33°06' E 033°44'710.9
2017-Jul-22 18:20N 33°07' E 033°35'1110.9
2017-Jul-22 17:17N 33°10' E 033°22'710.8
2017-Jul-22 16:38N 33°11' E 033°14'7713.5
2017-Jul-22 10:56N 33°29' E 031°44'  
2017-Jul-20 01:52N 40°07' E 018°52'1014.2
2017-Jul-20 01:12N 40°15' E 018°45'314.0
2017-Jul-20 01:00N 40°17' E 018°43'814.3
2017-Jul-20 00:28N 40°23' E 018°38'714.5
2017-Jul-19 23:59N 40°29' E 018°33'1014.3
2017-Jul-19 23:16N 40°37' E 018°24'1814.2
2017-Jul-19 22:01N 40°49' E 018°07'314.1
2017-Jul-19 21:48N 40°51' E 018°04'25113.8
2017-Jul-19 03:37N 43°55' E 014°13'213.9
2017-Jul-19 03:30N 43°56' E 014°12'714.0
2017-Jul-19 03:00N 44°01' E 014°06'913.8
2017-Jul-19 02:23N 44°08' E 013°59'513.8
2017-Jul-19 02:00N 44°13' E 013°55'2213.8
2017-Jul-19 00:26N 44°31' E 013°38'613.0
2017-Jul-18 23:57N 44°36' E 013°34'613.7
2017-Jul-18 23:30N 44°41' E 013°29'714.0
2017-Jul-18 23:00N 44°47' E 013°23'714.0
2017-Jul-18 22:30N 44°52' E 013°16'713.8
2017-Jul-18 22:00N 44°54' E 013°07'714.1
2017-Jul-18 21:30N 44°55' E 012°57'713.4
2017-Jul-18 21:00N 44°58' E 012°48'714.0
2017-Jul-18 20:31N 45°04' E 012°43'713.6
2017-Jul-18 20:00N 45°09' E 012°36'613.0
2017-Jul-18 19:30N 45°14' E 012°30'612.6
2017-Jul-18 19:00N 45°18' E 012°24'4 9.0
2017-Jul-18 18:30N 45°20' E 012°18'4 8.3
2017-Jul-18 18:00N 45°24' E 012°16'3 6.4
2017-Jul-18 17:29N 45°27' E 012°15'0 0.0
2017-Jul-18 13:26N 45°27' E 012°15'0 0.0
2017-Jul-18 12:59N 45°27' E 012°15'0 0.0
2017-Jul-18 12:29N 45°27' E 012°15'0 0.0
2017-Jul-18 11:59N 45°27' E 012°15'0 0.0
2017-Jul-18 11:29N 45°27' E 012°15'0 0.0
2017-Jul-18 10:59N 45°27' E 012°15'0 0.0
2017-Jul-18 10:29N 45°27' E 012°15'0 0.0
2017-Jul-18 09:17N 45°27' E 012°15'0 0.0
2017-Jul-18 08:59N 45°27' E 012°15'0 0.0
2017-Jul-18 08:08N 45°27' E 012°15'0 0.0
2017-Jul-18 07:59N 45°27' E 012°15'0 0.0
2017-Jul-18 07:11N 45°27' E 012°15'0 0.0
2017-Jul-18 06:59N 45°27' E 012°15'0 0.0
2017-Jul-18 06:29N 45°27' E 012°15'0 0.0
2017-Jul-18 05:59N 45°27' E 012°15'0 0.3
2017-Jul-18 05:31N 45°27' E 012°16'2 4.9
2017-Jul-18 05:01N 45°25' E 012°16'4 8.6
2017-Jul-18 04:30N 45°21' E 012°17'5 9.5
2017-Jul-18 04:01N 45°20' E 012°24'1 2.9
2017-Jul-18 03:31N 45°19' E 012°25'4 7.6
2017-Jul-18 03:01N 45°17' E 012°30'5 9.3
2017-Jul-18 02:30N 45°15' E 012°36'5 9.4
2017-Jul-18 02:00N 45°12' E 012°41'5 9.3
2017-Jul-18 01:30N 45°09' E 012°46'5 9.2
2017-Jul-18 01:00N 45°05' E 012°50'5 9.5
2017-Jul-18 00:30N 45°01' E 012°52'4 8.9
2017-Jul-18 00:00N 44°56' E 012°53'5 9.2
2017-Jul-17 23:30N 44°52' E 012°53'5 9.3
2017-Jul-17 23:01N 44°47' E 012°51'5 9.4
2017-Jul-17 22:30N 44°43' E 012°50'4 8.9
2017-Jul-17 22:00N 44°38' E 012°49'4 8.6
2017-Jul-17 21:30N 44°34' E 012°50'4 8.6
2017-Jul-17 21:00N 44°30' E 012°50'4 7.9
2017-Jul-17 20:30N 44°27' E 012°45'4 8.9
2017-Jul-17 20:00N 44°27' E 012°39'4 8.8
2017-Jul-17 19:30N 44°28' E 012°33'5 8.9
2017-Jul-17 19:00N 44°29' E 012°27'4 8.6
2017-Jul-17 18:30N 44°30' E 012°21'3 6.5
2017-Jul-17 18:00N 44°29' E 012°16'8 0.6
2017-Jul-17 04:51N 44°30' E 012°27'7 0.6
2017-Jul-16 16:34N 44°30' E 012°37'913.9
2017-Jul-16 15:54N 44°38' E 012°43'514.0
2017-Jul-16 15:30N 44°43' E 012°46'713.8
2017-Jul-16 15:00N 44°49' E 012°50'714.0
2017-Jul-16 14:29N 44°56' E 012°54'714.3
2017-Jul-16 14:00N 45°03' E 012°58'713.8
2017-Jul-16 13:30N 45°09' E 013°00'713.9
2017-Jul-16 13:00N 45°16' E 013°01'713.8
2017-Jul-16 12:30N 45°23' E 013°03'714.5
2017-Jul-16 12:00N 45°28' E 013°11'714.3
2017-Jul-16 11:31N 45°33' E 013°18'714.3
2017-Jul-16 11:01N 45°36' E 013°27'713.9
2017-Jul-16 10:30N 45°39' E 013°36'510.1
2017-Jul-16 10:01N 45°38' E 013°44'2 3.1
2017-Jul-16 09:29N 45°38' E 013°46'0 0.0
2017-Jul-16 08:59N 45°38' E 013°46'0 0.0
2017-Jul-16 08:29N 45°38' E 013°46'0 0.0
2017-Jul-16 07:59N 45°38' E 013°46'0 0.0
2017-Jul-16 07:26N 45°38' E 013°46'0 0.0
2017-Jul-16 06:56N 45°38' E 013°46'0 0.0
2017-Jul-16 06:29N 45°38' E 013°46'0 0.0
2017-Jul-16 05:59N 45°38' E 013°46'0 0.0
2017-Jul-16 05:29N 45°38' E 013°46'0 0.0
2017-Jul-16 04:59N 45°38' E 013°46'0 0.0
2017-Jul-16 04:29N 45°38' E 013°46'0 0.0
2017-Jul-16 03:56N 45°38' E 013°46'0 0.0
2017-Jul-16 03:29N 45°38' E 013°46'0 0.0
2017-Jul-16 02:59N 45°38' E 013°46'0 0.0
2017-Jul-16 02:29N 45°38' E 013°46'0 0.0
2017-Jul-16 01:59N 45°38' E 013°46'0 0.0
2017-Jul-16 01:29N 45°38' E 013°46'0 0.0
2017-Jul-16 00:59N 45°38' E 013°46'0 0.0
2017-Jul-16 00:29N 45°38' E 013°46'0 0.0
2017-Jul-15 23:59N 45°38' E 013°46'0 0.0
2017-Jul-15 23:29N 45°38' E 013°46'0 0.0
2017-Jul-15 22:59N 45°38' E 013°46'0 0.0
2017-Jul-15 22:29N 45°38' E 013°46'0 0.0
2017-Jul-15 21:53N 45°38' E 013°46'0 0.0
2017-Jul-15 21:29N 45°38' E 013°46'0 0.0
2017-Jul-15 20:56N 45°38' E 013°46'0 0.0
2017-Jul-15 20:30N 45°38' E 013°46'0 0.0
2017-Jul-15 20:00N 45°38' E 013°46'0 0.0
2017-Jul-15 19:28N 45°38' E 013°46'0 0.0
2017-Jul-15 18:58N 45°38' E 013°46'0 0.0
2017-Jul-15 18:28N 45°38' E 013°46'0 0.0
2017-Jul-15 17:58N 45°38' E 013°46'0 0.0
2017-Jul-15 17:30N 45°38' E 013°46'1 2.2
2017-Jul-15 17:00N 45°38' E 013°44'3 5.4
2017-Jul-15 16:30N 45°39' E 013°41'4 7.3
2017-Jul-15 16:00N 45°35' E 013°41'3 6.1
2017-Jul-15 15:30N 45°33' E 013°44'0 0.5
2017-Jul-15 14:58N 45°33' E 013°44'0 0.0
2017-Jul-15 13:58N 45°33' E 013°44'0 0.0
2017-Jul-15 13:28N 45°33' E 013°44'0 0.0
2017-Jul-15 12:58N 45°33' E 013°44'0 0.0
2017-Jul-15 12:25N 45°33' E 013°44'0 0.0
2017-Jul-15 11:58N 45°33' E 013°44'0 0.0
2017-Jul-15 11:28N 45°33' E 013°44'0 0.0
2017-Jul-15 10:58N 45°33' E 013°44'0 0.0
2017-Jul-15 10:28N 45°33' E 013°44'0 0.0
2017-Jul-15 09:55N 45°33' E 013°44'0 0.0
2017-Jul-15 09:19N 45°33' E 013°44'0 0.0
2017-Jul-15 08:58N 45°33' E 013°44'0 0.0
2017-Jul-15 08:28N 45°33' E 013°44'0 0.0
2017-Jul-15 07:55N 45°33' E 013°44'0 0.0
2017-Jul-15 07:28N 45°33' E 013°44'0 0.0
2017-Jul-15 06:58N 45°33' E 013°44'0 0.0
2017-Jul-15 06:28N 45°33' E 013°44'0 0.0
2017-Jul-15 05:58N 45°33' E 013°44'0 0.0
2017-Jul-15 05:28N 45°33' E 013°44'0 0.0
2017-Jul-15 04:58N 45°33' E 013°44'0 0.0
2017-Jul-15 04:25N 45°33' E 013°44'0 0.0
2017-Jul-15 03:58N 45°33' E 013°44'0 0.0
2017-Jul-15 03:30N 45°33' E 013°44'2 3.4
2017-Jul-15 03:00N 45°34' E 013°42'3 5.3
2017-Jul-15 02:30N 45°34' E 013°38'5 9.2
2017-Jul-15 02:00N 45°34' E 013°32'5 9.3
2017-Jul-15 01:30N 45°32' E 013°26'5 9.2
2017-Jul-15 01:00N 45°29' E 013°21'5 9.2
2017-Jul-15 00:30N 45°26' E 013°16'5 9.1
2017-Jul-15 00:00N 45°22' E 013°13'5 9.2
2017-Jul-14 23:30N 45°17' E 013°13'5 9.4
2017-Jul-14 23:00N 45°13' E 013°15'5 9.6
2017-Jul-14 22:30N 45°08' E 013°17'  
Track history (hours):
 
Tides and Currents Weather Stations Pressure Air Temp Water Temp Dewpoint Dewpoint Depression Visibility Wind Speed Wind Dir Waves Ship Positions

MSC Lea

Last reported at 2017-Jul-24 22:30 UTC. Time now 2017-Jul-24 22:45 UTC.
Position N 32°10' E 033°44'.

Length 216 m; draft 8.3 m.

Type: Ship (hazmat cat D). MMSI: 215101000.

Date/timePositionNaut miles runAvg speedWind from/ knotsBaromVisibWave heightAir tempDewpointWater temp
2017-Jul-24 22:30N 32°10' E 033°44'714.0
2017-Jul-24 22:00N 32°08' E 033°51'713.9
2017-Jul-24 21:30N 32°05' E 033°59'713.7
2017-Jul-24 21:01N 32°02' E 034°06'22 1.1
2017-Jul-23 23:53N 32°05' E 034°32'410.5
2017-Jul-23 23:30N 32°09' E 034°33'510.6
2017-Jul-23 23:00N 32°14' E 034°35'610.8
2017-Jul-23 22:30N 32°19' E 034°37'510.8
2017-Jul-23 22:00N 32°24' E 034°39'510.6
2017-Jul-23 21:30N 32°29' E 034°41'510.5
2017-Jul-23 21:00N 32°34' E 034°42'510.3
2017-Jul-23 20:30N 32°39' E 034°44'510.1
2017-Jul-23 20:00N 32°44' E 034°46'510.1
2017-Jul-23 19:30N 32°49' E 034°47'510.2
2017-Jul-23 18:59N 32°54' E 034°49'5 9.7
2017-Jul-23 18:30N 32°55' E 034°54'510.8
2017-Jul-23 18:00N 32°52' E 034°59'3 5.4
2017-Jul-23 17:28N 32°49' E 035°01'0 0.0
2017-Jul-23 16:58N 32°49' E 035°01'0 0.0
2017-Jul-23 16:28N 32°49' E 035°01'0 0.0
2017-Jul-23 15:58N 32°49' E 035°01'0 0.0
2017-Jul-23 15:28N 32°49' E 035°01'0 0.0
2017-Jul-23 14:58N 32°49' E 035°01'0 0.0
2017-Jul-23 14:28N 32°49' E 035°01'0 0.0
2017-Jul-23 13:58N 32°49' E 035°01'0 0.0
2017-Jul-23 13:28N 32°49' E 035°01'0 0.0
2017-Jul-23 12:55N 32°49' E 035°01'0 0.0
2017-Jul-23 12:28N 32°49' E 035°01'0 0.0
2017-Jul-23 11:58N 32°49' E 035°01'0 0.0
2017-Jul-23 11:28N 32°49' E 035°01'0 0.0
2017-Jul-23 10:58N 32°49' E 035°01'0 0.0
2017-Jul-23 10:28N 32°49' E 035°01'0 0.0
2017-Jul-23 09:58N 32°49' E 035°01'0 0.0
2017-Jul-23 09:28N 32°49' E 035°01'0 0.0
2017-Jul-23 08:58N 32°49' E 035°01'0 0.0
2017-Jul-23 08:28N 32°49' E 035°01'0 0.0
2017-Jul-23 07:58N 32°49' E 035°01'0 0.0
2017-Jul-23 07:28N 32°49' E 035°01'0 0.0
2017-Jul-23 06:16N 32°49' E 035°01'0 0.0
2017-Jul-23 05:58N 32°49' E 035°01'0 0.0
2017-Jul-23 05:28N 32°49' E 035°01'0 0.0
2017-Jul-23 04:58N 32°49' E 035°01'0 0.1
2017-Jul-23 04:28N 32°49' E 035°01'0 0.0
2017-Jul-23 03:58N 32°49' E 035°01'0 0.0
2017-Jul-23 03:28N 32°49' E 035°01'0 0.0
2017-Jul-23 02:58N 32°49' E 035°01'0 0.0
2017-Jul-23 02:28N 32°49' E 035°01'0 0.0
2017-Jul-23 01:58N 32°49' E 035°01'1 1.6
2017-Jul-23 01:30N 32°50' E 035°01'2 4.7
2017-Jul-23 01:00N 32°51' E 034°59'612.6
2017-Jul-23 00:30N 32°54' E 034°53'1014.4
2017-Jul-22 23:49N 32°56' E 034°41'5 9.3
2017-Jul-22 23:16N 32°57' E 034°35'3 9.8
2017-Jul-22 22:59N 32°58' E 034°32'510.2
2017-Jul-22 22:30N 32°58' E 034°26'510.0
2017-Jul-22 22:00N 32°59' E 034°20'510.2
2017-Jul-22 21:30N 33°00' E 034°14'510.2
2017-Jul-22 21:00N 33°01' E 034°08'510.5
2017-Jul-22 20:30N 33°02' E 034°02'510.6
2017-Jul-22 20:00N 33°03' E 033°56'510.6
2017-Jul-22 19:30N 33°04' E 033°50'510.6
2017-Jul-22 19:00N 33°06' E 033°44'710.9
2017-Jul-22 18:20N 33°07' E 033°35'1110.9
2017-Jul-22 17:17N 33°10' E 033°22'710.8
2017-Jul-22 16:38N 33°11' E 033°14'7713.5
2017-Jul-22 10:56N 33°29' E 031°44'  
2017-Jul-20 01:52N 40°07' E 018°52'1014.2
2017-Jul-20 01:12N 40°15' E 018°45'314.0
2017-Jul-20 01:00N 40°17' E 018°43'814.3
2017-Jul-20 00:28N 40°23' E 018°38'714.5
2017-Jul-19 23:59N 40°29' E 018°33'1014.3
2017-Jul-19 23:16N 40°37' E 018°24'1814.2
2017-Jul-19 22:01N 40°49' E 018°07'314.1
2017-Jul-19 21:48N 40°51' E 018°04'25113.8
2017-Jul-19 03:37N 43°55' E 014°13'213.9
2017-Jul-19 03:30N 43°56' E 014°12'714.0
2017-Jul-19 03:00N 44°01' E 014°06'913.8
2017-Jul-19 02:23N 44°08' E 013°59'513.8
2017-Jul-19 02:00N 44°13' E 013°55'2213.8
2017-Jul-19 00:26N 44°31' E 013°38'613.0
2017-Jul-18 23:57N 44°36' E 013°34'613.7
2017-Jul-18 23:30N 44°41' E 013°29'714.0
2017-Jul-18 23:00N 44°47' E 013°23'714.0
2017-Jul-18 22:30N 44°52' E 013°16'713.8
2017-Jul-18 22:00N 44°54' E 013°07'714.1
2017-Jul-18 21:30N 44°55' E 012°57'713.4
2017-Jul-18 21:00N 44°58' E 012°48'714.0
2017-Jul-18 20:31N 45°04' E 012°43'713.6
2017-Jul-18 20:00N 45°09' E 012°36'613.0
2017-Jul-18 19:30N 45°14' E 012°30'612.6
2017-Jul-18 19:00N 45°18' E 012°24'4 9.0
2017-Jul-18 18:30N 45°20' E 012°18'4 8.3
2017-Jul-18 18:00N 45°24' E 012°16'3 6.4
2017-Jul-18 17:29N 45°27' E 012°15'0 0.0
2017-Jul-18 13:26N 45°27' E 012°15'0 0.0
2017-Jul-18 12:59N 45°27' E 012°15'0 0.0
2017-Jul-18 12:29N 45°27' E 012°15'0 0.0
2017-Jul-18 11:59N 45°27' E 012°15'0 0.0
2017-Jul-18 11:29N 45°27' E 012°15'0 0.0
2017-Jul-18 10:59N 45°27' E 012°15'0 0.0
2017-Jul-18 10:29N 45°27' E 012°15'0 0.0
2017-Jul-18 09:17N 45°27' E 012°15'0 0.0
2017-Jul-18 08:59N 45°27' E 012°15'0 0.0
2017-Jul-18 08:08N 45°27' E 012°15'0 0.0
2017-Jul-18 07:59N 45°27' E 012°15'0 0.0
2017-Jul-18 07:11N 45°27' E 012°15'0 0.0
2017-Jul-18 06:59N 45°27' E 012°15'0 0.0
2017-Jul-18 06:29N 45°27' E 012°15'0 0.0
2017-Jul-18 05:59N 45°27' E 012°15'0 0.3
2017-Jul-18 05:31N 45°27' E 012°16'2 4.9
2017-Jul-18 05:01N 45°25' E 012°16'4 8.6
2017-Jul-18 04:30N 45°21' E 012°17'5 9.5
2017-Jul-18 04:01N 45°20' E 012°24'1 2.9
2017-Jul-18 03:31N 45°19' E 012°25'4 7.6
2017-Jul-18 03:01N 45°17' E 012°30'5 9.3
2017-Jul-18 02:30N 45°15' E 012°36'5 9.4
2017-Jul-18 02:00N 45°12' E 012°41'5 9.3
2017-Jul-18 01:30N 45°09' E 012°46'5 9.2
2017-Jul-18 01:00N 45°05' E 012°50'5 9.5
2017-Jul-18 00:30N 45°01' E 012°52'4 8.9
2017-Jul-18 00:00N 44°56' E 012°53'5 9.2
2017-Jul-17 23:30N 44°52' E 012°53'5 9.3
2017-Jul-17 23:01N 44°47' E 012°51'5 9.4
2017-Jul-17 22:30N 44°43' E 012°50'4 8.9
2017-Jul-17 22:00N 44°38' E 012°49'4 8.6
2017-Jul-17 21:30N 44°34' E 012°50'4 8.6
2017-Jul-17 21:00N 44°30' E 012°50'4 7.9
2017-Jul-17 20:30N 44°27' E 012°45'4 8.9
2017-Jul-17 20:00N 44°27' E 012°39'4 8.8
2017-Jul-17 19:30N 44°28' E 012°33'5 8.9
2017-Jul-17 19:00N 44°29' E 012°27'4 8.6
2017-Jul-17 18:30N 44°30' E 012°21'3 6.5
2017-Jul-17 18:00N 44°29' E 012°16'8 0.6
2017-Jul-17 04:51N 44°30' E 012°27'7 0.6
2017-Jul-16 16:34N 44°30' E 012°37'913.9
2017-Jul-16 15:54N 44°38' E 012°43'514.0
2017-Jul-16 15:30N 44°43' E 012°46'713.8
2017-Jul-16 15:00N 44°49' E 012°50'714.0
2017-Jul-16 14:29N 44°56' E 012°54'714.3
2017-Jul-16 14:00N 45°03' E 012°58'713.8
2017-Jul-16 13:30N 45°09' E 013°00'713.9
2017-Jul-16 13:00N 45°16' E 013°01'713.8
2017-Jul-16 12:30N 45°23' E 013°03'714.5
2017-Jul-16 12:00N 45°28' E 013°11'714.3
2017-Jul-16 11:31N 45°33' E 013°18'714.3
2017-Jul-16 11:01N 45°36' E 013°27'713.9
2017-Jul-16 10:30N 45°39' E 013°36'510.1
2017-Jul-16 10:01N 45°38' E 013°44'2 3.1
2017-Jul-16 09:29N 45°38' E 013°46'0 0.0
2017-Jul-16 08:59N 45°38' E 013°46'0 0.0
2017-Jul-16 08:29N 45°38' E 013°46'0 0.0
2017-Jul-16 07:59N 45°38' E 013°46'0 0.0
2017-Jul-16 07:26N 45°38' E 013°46'0 0.0
2017-Jul-16 06:56N 45°38' E 013°46'0 0.0
2017-Jul-16 06:29N 45°38' E 013°46'0 0.0
2017-Jul-16 05:59N 45°38' E 013°46'0 0.0
2017-Jul-16 05:29N 45°38' E 013°46'0 0.0
2017-Jul-16 04:59N 45°38' E 013°46'0 0.0
2017-Jul-16 04:29N 45°38' E 013°46'0 0.0
2017-Jul-16 03:56N 45°38' E 013°46'0 0.0
2017-Jul-16 03:29N 45°38' E 013°46'0 0.0
2017-Jul-16 02:59N 45°38' E 013°46'0 0.0
2017-Jul-16 02:29N 45°38' E 013°46'0 0.0
2017-Jul-16 01:59N 45°38' E 013°46'0 0.0
2017-Jul-16 01:29N 45°38' E 013°46'0 0.0
2017-Jul-16 00:59N 45°38' E 013°46'0 0.0
2017-Jul-16 00:29N 45°38' E 013°46'0 0.0
2017-Jul-15 23:59N 45°38' E 013°46'0 0.0
2017-Jul-15 23:29N 45°38' E 013°46'0 0.0
2017-Jul-15 22:59N 45°38' E 013°46'0 0.0
2017-Jul-15 22:29N 45°38' E 013°46'0 0.0
2017-Jul-15 21:53N 45°38' E 013°46'0 0.0
2017-Jul-15 21:29N 45°38' E 013°46'0 0.0
2017-Jul-15 20:56N 45°38' E 013°46'0 0.0
2017-Jul-15 20:30N 45°38' E 013°46'0 0.0
2017-Jul-15 20:00N 45°38' E 013°46'0 0.0
2017-Jul-15 19:28N 45°38' E 013°46'0 0.0
2017-Jul-15 18:58N 45°38' E 013°46'0 0.0
2017-Jul-15 18:28N 45°38' E 013°46'0 0.0
2017-Jul-15 17:58N 45°38' E 013°46'0 0.0
2017-Jul-15 17:30N 45°38' E 013°46'1 2.2
2017-Jul-15 17:00N 45°38' E 013°44'3 5.4
2017-Jul-15 16:30N 45°39' E 013°41'4 7.3
2017-Jul-15 16:00N 45°35' E 013°41'3 6.1
2017-Jul-15 15:30N 45°33' E 013°44'0 0.5
2017-Jul-15 14:58N 45°33' E 013°44'0 0.0
2017-Jul-15 13:58N 45°33' E 013°44'0 0.0
2017-Jul-15 13:28N 45°33' E 013°44'0 0.0
2017-Jul-15 12:58N 45°33' E 013°44'0 0.0
2017-Jul-15 12:25N 45°33' E 013°44'0 0.0
2017-Jul-15 11:58N 45°33' E 013°44'0 0.0
2017-Jul-15 11:28N 45°33' E 013°44'0 0.0
2017-Jul-15 10:58N 45°33' E 013°44'0 0.0
2017-Jul-15 10:28N 45°33' E 013°44'0 0.0
2017-Jul-15 09:55N 45°33' E 013°44'0 0.0
2017-Jul-15 09:19N 45°33' E 013°44'0 0.0
2017-Jul-15 08:58N 45°33' E 013°44'0 0.0
2017-Jul-15 08:28N 45°33' E 013°44'0 0.0
2017-Jul-15 07:55N 45°33' E 013°44'0 0.0
2017-Jul-15 07:28N 45°33' E 013°44'0 0.0
2017-Jul-15 06:58N 45°33' E 013°44'0 0.0
2017-Jul-15 06:28N 45°33' E 013°44'0 0.0
2017-Jul-15 05:58N 45°33' E 013°44'0 0.0
2017-Jul-15 05:28N 45°33' E 013°44'0 0.0
2017-Jul-15 04:58N 45°33' E 013°44'0 0.0
2017-Jul-15 04:25N 45°33' E 013°44'0 0.0
2017-Jul-15 03:58N 45°33' E 013°44'0 0.0
2017-Jul-15 03:30N 45°33' E 013°44'2 3.4
2017-Jul-15 03:00N 45°34' E 013°42'3 5.3
2017-Jul-15 02:30N 45°34' E 013°38'5 9.2
2017-Jul-15 02:00N 45°34' E 013°32'5 9.3
2017-Jul-15 01:30N 45°32' E 013°26'5 9.2
2017-Jul-15 01:00N 45°29' E 013°21'5 9.2
2017-Jul-15 00:30N 45°26' E 013°16'5 9.1
2017-Jul-15 00:00N 45°22' E 013°13'5 9.2
2017-Jul-14 23:30N 45°17' E 013°13'5 9.4
2017-Jul-14 23:00N 45°13' E 013°15'5 9.6
2017-Jul-14 22:30N 45°08' E 013°17'  

Dump ship's entire track history